Date,TemperatureHighF,TemperatureAvgF,TemperatureLowF,DewpointHighF,DewpointAvgF,DewpointLowF,HumidityHigh,HumidityAvg,HumidityLow,PressureMaxIn,PressureMinIn,WindSpeedMaxMPH,WindSpeedAvgMPH,GustSpeedMaxMPH,PrecipitationSumIn
2013-1-2,11.1,11.0,10.9,1.6,1.5,1.4,65,65,65,29.87,29.87,4,4,0,0.00
2013-1-6,33.0,31.7,29.7,25.8,25.2,23.8,80,77,74,29.94,29.92,3,1,0,1.31
2013-1-7,31.6,30.5,29.4,26.8,25.7,24.6,84,82,81,29.97,29.92,2,1,0,0.00
2013-1-8,34.4,32.5,30.4,22.9,22.1,21.5,71,65,59,30.34,30.28,5,2,6,0.00
2013-1-9,37.0,32.7,28.5,30.2,25.6,21.3,82,75,64,30.38,29.92,6,2,8,0.00
2013-1-10,44.9,38.0,29.3,30.9,25.5,22.4,77,61,46,30.52,29.93,12,6,17,0.00
2013-1-11,31.2,28.3,26.3,23.0,21.6,20.7,80,76,71,30.51,30.46,5,2,8,0.00
2013-1-12,39.9,39.4,39.1,39.6,39.1,38.8,99,99,99,30.11,30.10,4,4,8,0.05
2013-1-13,44.9,39.7,36.5,44.9,39.4,36.2,100,99,99,30.15,29.95,6,2,8,0.01
2013-1-14,57.8,44.8,35.0,52.5,32.0,-99.9,100,78,56,30.20,29.83,7,3,14,0.00
2013-1-15,38.8,34.7,30.7,27.2,23.5,20.1,76,64,55,30.28,30.20,3,1,6,0.00
2013-1-16,29.4,28.8,28.2,27.8,27.2,26.7,94,94,92,29.88,29.79,4,1,6,0.00
2013-1-17,41.2,32.3,26.0,32.9,27.2,19.9,95,82,64,30.02,29.78,7,2,9,0.42
2013-1-19,40.8,34.5,26.6,25.4,20.0,15.3,66,56,46,30.14,29.84,8,5,14,0.02
2013-1-20,51.4,37.7,23.3,31.0,22.6,0.8,79,56,32,29.87,29.45,10,6,15,0.00
2013-1-21,23.3,18.5,14.8,13.8,1.0,-3.3,83,47,37,30.00,29.82,7,3,15,0.00
2013-1-22,25.3,17.2,12.3,13.9,8.8,4.1,81,70,50,29.81,29.74,5,3,8,0.00
2013-1-23,3.2,2.5,1.7,-16.1,-17.1,-18.4,42,39,35,30.09,30.07,5,3,5,0.00
2013-1-24,14.4,11.0,3.2,-11.3,-13.9,-16.2,39,31,28,30.06,29.99,9,6,15,0.00
2013-1-25,14.9,14.8,14.6,-2.2,-3.1,-3.4,46,44,44,30.05,30.04,3,2,4,0.00
2013-1-26,24.2,15.8,8.8,6.2,-0.9,-7.7,79,49,31,30.15,29.98,7,3,8,0.00
2013-1-27,26.9,16.8,8.3,0.8,-1.5,-4.9,63,46,30,30.38,30.15,9,4,14,0.00
2013-1-28,22.7,20.5,19.5,16.0,14.9,11.3,86,79,61,30.21,30.16,1,0,2,0.00
2013-1-29,32.4,31.9,31.5,31.1,30.4,29.7,95,94,93,30.16,30.13,2,0,2,0.12
2013-1-30,53.3,40.4,32.2,53.3,40.1,31.2,100,99,96,30.14,29.50,8,4,13,0.41
2013-1-31,48.2,33.1,28.1,48.2,-0.7,-99.9,100,40,39,29.47,28.85,9,-32,15,0.22
2013-2-1,28.1,23.8,16.2,17.6,11.4,2.4,78,60,40,30.01,29.47,8,4,11,0.00
2013-2-2,27.3,24.2,20.2,11.3,6.3,2.9,59,46,37,30.19,30.02,7,2,9,0.00
2013-2-3,27.2,22.6,16.7,17.6,15.0,9.8,86,73,54,30.03,29.81,5,2,9,0.00
2013-2-4,30.4,27.6,24.1,8.2,2.7,-3.8,44,34,28,29.72,29.68,10,6,15,0.00
2013-2-5,28.1,22.6,12.8,6.2,2.4,-0.3,56,42,31,30.01,29.95,5,2,8,0.00
2013-2-6,32.9,29.6,26.6,15.8,14.3,10.7,58,53,40,30.13,29.98,6,4,9,0.01
2013-2-7,18.8,17.7,17.0,2.3,-0.6,-2.2,48,44,42,30.53,30.50,3,2,4,0.00
2013-2-8,17.0,13.1,10.0,11.9,7.7,-1.7,89,80,44,30.51,29.80,11,5,13,0.00
2013-2-9,19.5,15.1,11.2,17.3,12.4,8.3,91,89,86,30.14,29.63,15,10,22,0.00
2013-2-10,33.5,21.2,7.2,27.4,14.4,3.4,86,75,58,30.36,30.14,8,4,9,0.25
2013-2-11,34.9,27.8,20.3,34.9,23.0,7.3,100,83,53,30.33,29.58,7,2,8,8.11
2013-2-12,44.9,36.7,31.9,35.0,30.6,25.7,100,79,57,29.79,29.53,7,2,11,0.67
2013-2-13,43.8,32.6,27.8,25.5,22.0,19.7,75,65,44,29.82,29.71,6,1,9,0.11
2013-2-14,44.6,34.2,26.9,26.6,22.3,19.3,78,63,39,29.97,29.69,6,2,9,0.00
2013-2-15,48.8,35.7,27.5,31.4,26.9,21.9,85,71,48,29.96,29.87,7,2,10,0.00
2013-2-16,39.8,36.3,30.7,32.9,28.9,26.5,94,75,61,29.93,29.83,4,2,7,0.06
2013-2-17,21.0,19.5,15.1,17.6,13.2,3.7,88,77,57,29.41,29.26,10,8,17,0.00
2013-2-18,29.8,25.1,16.7,7.3,0.9,-5.8,53,35,27,29.99,29.80,11,7,20,0.14
2013-2-19,41.3,36.7,30.4,39.6,24.5,-1.4,98,69,23,30.08,29.53,7,2,9,0.30
2013-2-20,38.6,32.3,24.1,38.3,24.6,13.8,99,74,53,29.68,29.45,8,4,20,0.01
2013-2-21,30.9,24.9,19.5,16.3,12.4,7.8,72,59,42,30.07,29.67,9,6,14,0.00
2013-2-22,41.6,33.4,29.8,23.7,21.7,18.2,76,63,42,30.38,30.31,5,2,7,0.00
2013-2-23,35.5,32.8,30.0,32.5,29.7,22.8,98,89,73,30.33,29.98,6,2,7,0.02
2013-2-24,32.8,31.6,28.1,32.6,31.2,27.1,99,98,96,29.98,29.76,0,0,0,0.01
2013-2-25,37.0,28.8,25.0,32.1,27.1,23.3,96,93,80,30.07,29.89,0,0,0,0.00
2013-2-26,41.1,35.5,31.2,32.0,28.8,26.8,94,77,63,30.35,30.21,6,2,8,0.04
2013-2-27,36.6,32.9,31.2,35.3,31.5,27.6,99,95,84,30.21,29.62,8,2,14,0.30
2013-2-28,41.9,35.4,30.7,39.7,33.4,30.2,99,92,80,29.62,29.53,5,1,8,0.14
2013-3-1,38.6,34.0,30.0,30.4,28.8,26.6,92,81,70,29.66,29.52,7,3,9,0.04
2013-3-2,43.2,35.2,30.7,29.7,28.9,28.0,93,79,55,29.65,29.59,5,2,8,0.08
2013-3-3,41.8,34.5,30.3,34.9,30.4,27.0,94,85,69,29.62,29.53,5,3,9,0.15
2013-3-4,35.9,31.4,28.5,24.9,22.6,20.4,75,70,61,29.70,29.52,20,6,20,0.00
2013-3-5,48.5,36.1,27.6,32.6,27.9,20.9,90,73,51,30.08,29.70,8,4,11,0.00
2013-3-6,37.6,33.3,30.4,32.6,30.3,26.1,96,89,68,30.20,30.08,7,3,16,0.05
2013-3-7,34.6,31.1,29.0,28.8,25.5,23.4,90,80,70,30.15,30.05,9,6,15,0.01
2013-3-8,43.5,34.2,26.9,26.7,24.0,20.6,95,69,41,30.18,29.99,9,7,17,0.24
2013-3-9,56.3,38.1,27.6,28.9,22.8,15.5,91,58,21,30.35,30.17,7,3,11,0.11
2013-3-10,47.3,34.9,25.7,31.0,27.4,22.4,90,76,49,30.42,30.30,8,3,15,0.00
2013-3-11,56.0,37.5,31.0,35.0,30.8,28.9,96,80,36,30.31,30.14,7,4,15,0.00
2013-3-12,47.1,45.6,44.8,47.1,45.5,44.5,100,99,99,29.92,29.72,12,9,24,0.56
2013-3-13,50.4,41.0,32.5,46.2,34.9,25.8,100,81,49,29.75,29.67,7,3,15,0.01
2013-3-14,38.3,30.2,18.3,26.0,16.7,4.0,79,58,46,29.77,29.63,10,5,21,0.00
2013-3-15,38.9,26.2,15.1,28.1,10.7,1.6,92,54,25,29.80,29.60,7,4,14,0.00
2013-3-16,36.9,28.6,21.3,26.7,15.6,9.7,92,60,39,29.88,29.64,6,3,9,0.06
2013-3-17,32.7,23.7,17.5,14.2,8.4,-2.4,66,53,35,30.30,29.88,8,2,13,0.00
2013-3-18,37.5,28.0,14.4,21.7,10.5,-1.9,73,51,21,30.36,30.26,5,2,7,0.00
2013-3-19,31.2,28.3,22.5,30.2,26.6,20.3,96,93,71,30.25,29.67,8,5,10,0.01
2013-3-20,34.7,27.2,19.7,27.9,16.9,-99.9,92,74,59,29.75,29.65,7,-18,11,0.05
2013-3-21,43.2,30.8,20.3,21.0,17.8,14.3,78,60,34,29.77,29.59,7,2,9,8.99
2013-3-23,41.5,34.2,24.5,22.5,21.0,17.7,75,59,41,29.70,29.56,11,6,16,0.00
2013-3-24,49.6,37.5,28.4,27.3,23.6,21.5,76,59,36,29.79,29.68,9,4,16,0.00
2013-3-25,46.1,36.1,28.8,30.6,26.7,22.8,79,69,53,29.77,29.57,8,3,10,0.00
2013-3-26,52.2,39.9,30.4,25.9,22.2,16.3,75,52,27,29.74,29.55,7,4,13,0.00
2013-3-27,55.6,41.9,32.5,32.9,25.4,21.7,78,54,30,29.84,29.71,7,4,10,0.00
2013-3-28,47.9,47.9,47.9,26.5,26.5,26.5,43,43,43,29.93,29.92,1,1,1,0.00
2013-3-29,57.8,49.1,39.5,35.9,32.2,29.5,75,53,37,30.02,29.95,7,3,9,0.00
2013-3-30,57.5,45.5,36.5,30.4,25.2,14.8,77,50,24,30.05,29.98,6,4,9,0.00
2013-3-31,56.3,49.5,41.8,38.4,26.6,13.3,86,44,24,30.10,29.81,10,6,15,0.01
2013-4-1,58.4,43.4,31.3,42.6,35.0,13.2,97,75,41,29.79,29.46,8,4,11,0.62
2013-4-2,39.1,31.4,26.0,15.9,10.6,6.2,54,42,28,29.85,29.70,8,4,14,0.00
2013-4-3,40.9,30.0,26.1,13.7,11.2,8.7,56,46,27,29.90,29.84,9,4,14,0.00
2013-4-4,51.4,47.3,42.2,19.0,14.4,10.4,39,27,19,30.04,29.97,6,4,10,0.00
2013-4-5,62.3,45.6,35.8,28.3,24.0,18.0,71,46,19,29.96,29.63,7,5,11,0.00
2013-4-6,41.5,35.6,30.1,12.3,4.7,1.2,46,27,20,30.32,30.11,7,3,10,0.00
2013-4-7,52.8,41.4,29.4,35.8,23.6,5.4,75,50,31,30.32,29.95,13,5,20,0.00
2013-4-8,63.9,49.8,40.6,38.4,36.1,30.8,89,62,30,30.11,29.90,8,4,13,0.00
2013-4-9,54.4,45.0,40.6,41.1,38.9,35.3,96,80,60,30.09,29.93,6,2,10,0.12
2013-4-10,44.5,43.7,42.5,41.3,40.9,40.7,95,90,87,29.97,29.93,4,1,4,0.16
2013-4-11,47.0,43.4,40.3,29.7,25.5,19.5,60,49,42,30.15,30.02,4,2,8,0.08
2013-4-12,40.2,33.8,31.2,33.6,27.4,16.7,98,80,42,30.23,29.87,4,2,8,9.50
2013-4-13,49.8,39.1,32.2,39.1,35.0,31.7,98,87,60,29.92,29.78,6,3,9,0.26
2013-4-14,56.2,45.9,38.9,39.2,34.0,27.0,92,66,35,30.12,29.89,16,3,16,0.01
2013-4-15,55.9,51.0,46.1,36.1,34.5,32.7,68,54,42,30.34,30.33,10,8,14,0.00
2013-4-16,55.9,55.6,55.4,50.0,48.9,47.8,81,78,75,30.01,29.98,8,6,14,0.00
2013-4-17,55.9,51.8,46.5,51.8,42.0,32.2,86,70,51,30.13,29.97,7,4,10,0.00
2013-4-25,45.5,45.1,44.6,27.8,27.6,27.4,51,50,49,30.27,30.26,2,2,4,0.05
2013-4-26,61.3,49.1,38.8,37.3,30.3,24.9,77,50,29,30.42,30.28,10,3,14,0.00
2013-4-27,62.9,52.7,42.8,38.7,33.0,26.5,76,48,35,30.41,30.29,8,4,11,0.00
2013-4-29,63.2,54.3,48.2,37.5,34.0,31.6,59,47,37,30.23,30.18,10,3,13,0.00
2013-4-30,72.0,57.5,47.7,39.7,30.3,21.1,60,37,22,30.36,30.23,9,3,14,0.00
2013-5-1,48.8,45.8,42.3,31.0,25.5,18.5,58,45,30,30.42,30.36,3,1,6,0.00
2013-5-2,51.1,47.8,42.5,36.6,34.8,32.6,75,61,49,30.50,30.45,4,2,6,0.00
2013-5-3,47.1,40.8,38.0,37.8,36.1,34.9,90,83,70,30.54,30.49,4,2,7,0.00
2013-5-4,53.9,51.0,47.9,37.6,35.7,34.1,60,56,53,30.33,30.32,8,6,9,0.00
2013-5-5,44.6,44.0,43.5,39.9,39.0,37.8,85,82,77,30.26,30.25,6,5,9,0.00
2013-5-6,53.9,43.4,40.6,43.6,39.4,36.7,93,86,68,30.27,30.23,6,2,8,0.00
2013-5-7,79.9,72.3,60.9,55.8,49.4,42.0,77,47,27,30.16,30.09,8,5,14,0.00
2013-5-8,71.1,65.3,60.1,59.1,57.7,56.1,88,77,62,30.17,30.13,10,6,11,0.02
2013-5-9,55.3,54.5,53.9,54.5,53.8,53.3,98,98,97,29.93,29.91,0,0,0,0.44
2013-5-10,76.3,61.8,52.8,61.7,55.8,51.8,99,83,50,29.94,29.89,8,1,14,0.01
2013-5-11,65.8,59.1,52.2,62.9,57.3,50.9,98,94,85,29.91,29.68,6,2,10,0.33
2013-5-12,60.5,58.0,46.7,59.9,55.3,29.4,99,92,49,29.75,29.58,2,0,8,0.03
2013-5-13,57.2,48.1,40.8,33.4,30.1,27.1,71,51,32,30.02,29.76,8,3,11,0.00
2013-5-14,64.2,48.0,38.5,34.9,31.4,27.4,80,57,26,30.03,29.95,5,2,13,0.00
2013-5-16,75.4,75.4,75.4,37.1,37.1,37.1,25,25,25,29.57,29.57,4,4,4,0.00
2013-5-18,70.9,58.1,49.4,47.3,45.2,39.3,91,66,32,30.30,30.26,7,3,14,0.00
2013-5-19,63.9,52.1,48.6,51.9,48.2,46.9,96,87,64,30.36,30.26,5,1,7,0.00
2013-5-20,61.6,54.1,49.4,61.3,53.4,48.3,99,98,91,30.20,29.97,3,1,7,0.08
2013-5-21,59.9,54.3,48.8,57.3,52.0,47.7,96,92,85,30.04,29.94,5,0,6,0.01
2013-5-22,55.9,52.8,50.1,54.5,52.4,49.8,99,99,95,29.96,29.93,1,0,4,0.52
2013-5-23,66.8,45.1,63.9,66.0,13.0,-99.9,98,66,93,29.84,29.79,6,-312,10,0.15
2013-5-24,-200.0,0.0,200.0,-99.9,-99.9,-99.9,0,0,100,29.79,29.63,0,-999,0,0.00
2013-5-26,43.9,43.3,43.1,39.9,38.9,38.0,86,84,82,30.02,30.00,7,0,7,0.02
2013-5-27,67.3,47.3,40.5,40.5,36.7,30.3,85,70,27,30.16,30.02,15,2,15,0.00
2013-5-28,68.1,53.0,48.8,41.8,38.5,34.4,70,59,32,30.23,30.16,10,1,10,0.00
2013-5-30,73.2,72.4,71.6,62.6,62.2,61.6,73,70,69,30.01,30.00,0,0,0,0.00
2013-5-31,92.1,91.8,91.8,67.4,64.9,64.0,45,41,40,29.97,29.97,7,1,7,0.00
2013-6-1,91.6,87.3,79.0,70.4,62.7,59.6,75,45,35,29.82,29.80,14,1,14,0.03
2013-6-2,85.9,70.6,66.0,66.6,64.6,61.3,97,83,44,29.78,29.67,5,2,10,0.55
2013-6-3,66.4,9.1,59.6,65.5,-77.2,-99.9,97,13,71,29.81,29.73,1,-861,4,0.00
2013-6-4,64.0,56.3,51.6,50.6,45.4,41.8,83,68,45,30.07,29.78,4,1,8,0.00
2013-6-5,76.5,61.4,50.4,50.8,44.0,34.9,80,57,25,30.16,30.07,5,2,7,0.00
2013-6-6,72.7,61.7,54.8,54.5,48.7,42.6,90,64,35,30.20,30.12,6,1,9,0.00
2013-6-7,55.9,52.7,49.5,52.2,51.2,48.4,99,95,81,30.13,29.90,2,0,4,0.68
2013-6-8,76.8,44.3,51.0,62.6,9.2,-99.9,99,56,56,29.90,29.65,4,-303,9,0.59
2013-6-9,68.8,64.6,62.3,54.8,53.3,52.0,70,67,61,30.14,30.08,2,0,2,0.00
2013-6-10,62.1,58.7,56.7,55.1,52.7,51.5,89,81,70,30.20,30.14,1,0,2,0.00
2013-6-11,53.8,53.7,53.6,53.5,53.4,53.3,99,99,99,29.81,29.80,3,2,8,0.64
2013-6-12,58.3,58.0,57.5,53.2,52.6,52.0,83,82,81,29.78,29.78,2,1,4,0.02
2013-6-13,70.8,61.7,54.4,56.6,53.6,50.3,96,76,51,29.79,29.72,4,1,7,0.07
2013-6-14,75.3,65.2,54.4,60.1,55.7,52.6,99,73,49,29.74,29.66,1,0,6,0.08
2013-6-15,59.8,56.9,54.4,52.8,50.5,46.9,86,79,67,29.86,29.74,3,1,6,0.00
2013-6-16,75.1,70.1,63.7,58.7,56.8,52.5,81,64,46,29.83,29.70,5,1,5,0.00
2013-6-17,83.4,68.8,59.0,60.8,57.8,55.0,93,71,38,29.85,29.73,4,1,8,0.03
2013-6-18,67.3,60.3,56.7,59.8,56.7,53.8,94,88,68,29.97,29.85,2,0,6,0.02
2013-6-19,77.0,62.9,52.2,55.2,50.8,42.4,96,68,33,30.13,29.92,3,0,8,0.00
2013-6-20,79.6,66.2,54.7,55.1,48.2,43.8,78,55,29,30.24,30.13,5,2,11,0.00
2013-6-21,85.1,85.0,84.9,51.1,51.0,50.9,31,31,31,30.20,30.20,1,0,9,0.00
2013-6-23,69.6,68.1,67.4,68.7,67.2,66.4,98,97,96,30.05,29.98,3,1,10,2.06
2013-6-24,91.4,76.9,67.4,72.0,68.4,64.5,98,78,46,29.97,29.84,4,1,8,0.03
2013-6-25,91.4,78.7,69.8,72.9,67.9,63.0,93,71,48,29.87,29.71,4,1,10,0.28
2013-6-26,79.6,75.1,71.5,71.7,70.3,68.8,94,85,70,29.77,29.75,1,0,1,0.12
2013-6-27,66.4,65.4,64.2,64.6,64.1,63.6,99,95,92,29.85,29.84,1,0,1,0.02
2013-6-28,64.3,59.5,55.3,64.3,48.4,-99.9,100,93,99,29.62,29.52,1,0,7,0.65
2013-6-30,83.0,77.0,70.8,72.9,69.8,66.0,87,79,68,29.91,29.81,5,1,8,0.00
2013-7-1,79.9,72.8,69.3,72.9,69.8,66.8,97,91,73,30.02,29.90,3,0,7,1.66
2013-7-2,71.5,62.5,59.2,71.2,62.3,58.9,100,99,99,30.18,30.13,3,1,4,0.04
2013-7-3,76.1,75.8,75.4,71.0,70.8,70.6,85,84,84,30.13,30.13,1,0,1,0.01
2013-7-4,92.9,80.9,71.8,75.2,71.8,69.3,92,76,53,30.15,30.04,4,1,7,0.00
2013-7-5,93.8,83.2,74.0,76.9,72.2,69.1,90,71,51,30.11,29.98,3,1,7,0.00
2013-7-6,90.5,85.8,77.6,73.9,70.5,67.0,72,61,53,29.99,29.93,3,1,6,0.00
2013-7-8,75.4,74.1,72.0,71.9,70.9,69.9,94,90,86,29.97,29.94,1,0,1,0.01
2013-7-9,66.1,64.8,63.7,63.9,63.1,62.5,96,94,92,30.08,30.07,0,0,2,0.02
2013-7-10,69.6,65.3,61.0,69.3,64.9,60.7,99,99,96,30.08,29.77,3,0,6,0.37
2013-7-11,71.8,71.2,69.6,71.8,71.2,69.6,100,100,100,29.77,29.74,2,0,6,0.00
2013-7-12,79.0,76.7,73.0,63.4,62.2,61.0,68,61,56,30.13,30.11,2,1,7,0.00
2013-7-14,88.6,86.9,84.1,74.4,72.2,71.0,71,62,57,30.25,30.24,0,0,0,0.00
2013-7-20,71.5,71.1,70.8,66.1,65.8,65.7,84,83,83,29.75,29.75,0,0,0,0.00
2013-7-21,79.4,70.3,64.5,64.8,62.2,59.2,94,77,52,29.99,29.76,6,1,8,0.00
2013-7-22,75.1,67.8,64.7,67.9,64.7,61.7,98,90,75,30.03,29.91,4,0,10,0.00
2013-7-23,69.9,65.6,63.4,69.2,64.9,62.8,99,98,95,29.91,29.54,1,0,2,0.61
2013-7-24,85.9,70.6,59.3,71.3,64.6,53.1,99,83,56,29.95,29.56,2,0,7,0.00
2013-7-25,71.3,62.7,55.1,59.2,53.8,49.7,93,73,58,30.11,29.94,3,0,6,0.00
2013-7-27,77.2,75.4,73.7,67.2,66.2,64.7,79,73,67,29.98,29.98,0,0,0,0.00
2013-7-28,67.6,65.2,63.2,66.1,64.4,62.9,99,97,95,30.03,30.00,1,0,4,0.04
2013-7-29,80.1,67.5,62.9,70.3,65.3,61.6,100,93,71,30.04,29.98,7,1,9,0.01
2013-7-30,80.3,65.8,60.9,64.5,61.0,56.2,99,87,49,30.07,30.01,6,0,6,0.00
2013-7-31,83.8,69.6,61.2,64.4,57.9,55.7,87,69,40,30.11,30.05,5,0,10,0.00
2013-8-2,64.2,64.1,63.9,63.9,63.8,63.6,99,99,99,29.81,29.81,1,1,1,0.63
2013-8-3,64.8,63.6,62.6,56.3,55.3,54.2,78,74,73,29.81,29.80,0,0,7,0.00
2013-8-4,81.8,65.2,58.4,61.9,55.3,52.5,85,72,41,29.84,29.75,3,1,13,0.00
2013-8-5,73.2,59.4,55.1,52.9,51.8,48.5,90,78,44,29.91,29.84,4,1,6,0.00
2013-8-6,65.3,63.8,62.7,54.3,50.9,47.7,74,63,55,30.14,30.12,3,2,11,0.00
2013-8-7,76.1,61.4,57.2,62.1,56.1,53.6,93,83,62,30.17,30.13,3,0,4,0.00
2013-8-8,81.1,68.4,60.9,71.0,62.1,53.7,97,81,66,30.10,29.98,4,2,8,0.12
2013-8-9,69.6,68.7,68.1,69.3,68.4,67.8,99,99,99,29.76,29.71,5,0,6,0.66
2013-8-10,77.0,70.3,63.7,57.0,53.6,50.1,72,56,43,29.94,29.87,2,0,2,0.01
2013-8-12,85.7,71.0,61.0,60.9,56.6,51.6,80,63,31,30.00,29.90,4,1,8,0.00
2013-8-13,67.6,67.2,66.8,63.9,63.8,63.6,90,89,88,29.70,29.69,0,0,0,0.00
2013-8-14,64.5,62.9,56.9,63.0,60.4,50.4,96,92,77,29.89,29.63,0,0,2,0.00
2013-8-15,77.6,61.2,53.5,54.6,51.0,49.1,85,71,41,30.03,29.89,4,2,10,0.00
2013-8-16,79.8,71.9,65.3,61.0,59.2,53.3,77,65,40,30.14,30.10,1,0,7,0.00
2013-8-18,77.0,69.7,65.2,63.0,61.3,59.6,83,76,58,30.15,30.04,0,0,1,0.00
2013-8-19,71.3,63.6,61.5,61.8,58.5,57.3,87,83,72,30.05,29.98,4,2,8,0.00
2013-8-20,88.0,75.1,65.5,67.2,62.6,59.0,88,67,45,30.04,29.94,3,0,8,0.00
2013-8-21,91.2,82.0,73.3,67.2,64.9,61.9,76,57,41,30.08,29.99,3,0,4,0.00
2013-8-22,90.1,81.4,71.8,69.2,66.1,61.5,86,62,41,29.92,29.77,3,1,8,0.00
2013-8-23,84.3,71.0,65.0,66.5,61.9,51.8,84,75,33,29.93,29.76,3,1,6,0.00
2013-8-25,66.9,66.8,66.4,56.0,55.6,55.1,68,67,67,30.15,30.13,1,0,2,0.00
2013-8-26,70.4,64.2,60.7,66.3,59.0,55.6,96,84,67,30.13,29.85,3,1,7,0.10
2013-8-27,87.8,74.8,66.0,69.2,66.5,64.5,96,78,50,29.87,29.82,1,0,4,0.00
2013-8-28,88.6,73.8,64.0,70.5,65.1,61.5,97,76,51,29.98,29.85,6,1,11,0.28
2013-8-29,66.1,63.3,60.5,65.0,61.2,59.2,99,93,80,30.09,29.95,2,0,6,0.03
2013-8-30,67.6,61.0,59.8,63.0,59.8,58.9,97,96,85,30.02,29.92,1,0,2,0.01
2013-9-1,69.8,69.6,69.6,68.6,68.4,68.1,96,96,95,29.87,29.85,0,0,0,0.00
2013-9-2,69.9,68.9,67.1,69.6,68.5,66.8,99,99,97,29.85,29.72,3,0,7,1.11
2013-9-3,83.2,54.0,67.8,71.3,23.2,-99.9,100,62,60,29.76,29.68,1,-270,6,0.00
2013-9-7,61.8,61.7,61.6,53.1,52.8,52.5,73,72,72,29.80,29.80,1,0,4,0.00
2013-9-8,62.3,60.7,59.2,55.0,51.8,49.4,80,73,65,29.79,29.71,2,1,7,0.00
2013-9-20,-200.0,0.0,200.0,-99.9,-99.9,-99.9,0,0,100,0.00,40.00,0,-999,6,0.00
2013-9-22,51.7,28.4,49.8,44.0,-36.1,-99.9,75,33,74,29.72,29.71,1,-333,7,1.05
2013-9-23,61.2,41.4,43.6,42.7,8.7,-99.9,89,58,49,29.81,29.71,5,-152,13,0.00
2013-9-24,61.2,52.5,47.3,47.6,45.3,43.3,88,77,58,29.82,29.77,8,0,8,0.00
2013-9-25,60.9,52.0,45.5,51.3,44.0,-99.9,94,79,60,29.92,29.79,7,-11,7,0.00
2013-9-26,69.8,55.3,47.0,52.0,46.9,43.3,88,75,49,30.06,29.92,7,0,7,0.00
2013-9-27,69.6,58.4,53.9,55.6,51.5,48.8,86,79,55,30.18,30.06,2,0,6,0.00
2013-9-28,55.6,55.4,55.3,51.5,51.3,51.2,86,86,85,30.18,30.18,2,1,4,0.00
2013-9-29,71.1,59.4,48.9,54.9,48.7,45.5,94,70,45,30.17,30.06,6,2,8,0.00
2013-9-30,72.5,55.8,46.8,55.4,50.0,45.4,97,83,51,30.06,29.90,6,0,6,0.00
2013-10-1,53.2,51.9,51.0,51.7,50.3,49.0,96,94,92,29.90,29.85,2,0,2,0.00
2013-10-2,80.5,71.2,59.9,60.3,57.2,52.4,86,62,47,29.84,29.72,16,2,16,0.00
2013-10-3,76.8,63.8,56.9,55.1,51.7,47.0,84,66,37,29.99,29.84,4,1,8,0.00
2013-10-4,71.8,60.6,54.7,56.9,48.6,45.5,75,65,44,30.02,29.97,0,0,4,0.00
2013-10-6,51.6,50.1,48.8,51.3,47.9,40.6,99,93,69,30.20,30.11,1,0,4,0.16
2013-10-7,67.1,43.5,51.4,66.6,19.3,-99.9,100,75,63,30.11,29.71,9,-236,13,0.42
2013-10-8,66.9,54.5,46.0,55.6,44.4,38.4,95,71,38,30.30,29.80,5,1,11,0.00
2013-10-9,63.5,49.2,41.9,44.9,41.4,38.0,91,76,42,30.42,30.30,5,1,8,0.00
2013-10-10,47.9,20.0,44.1,44.8,-38.6,-99.9,93,83,45,30.30,30.10,3,1,6,0.00
2013-10-11,49.6,17.4,-90.0,45.9,-36.5,-99.9,91,88,85,30.10,30.08,0,0,0,0.00
2013-10-12,46.2,45.9,45.7,44.6,44.5,44.4,95,95,94,30.35,30.35,0,0,0,0.00
2013-10-13,51.1,32.3,-90.0,48.9,12.3,-99.9,98,92,72,30.50,30.33,2,0,4,0.00
2013-10-14,54.7,51.3,44.2,47.9,46.0,42.4,95,82,74,30.34,30.18,2,1,6,0.00
2013-10-15,55.1,54.5,53.5,49.4,46.0,42.7,81,73,66,30.18,30.16,3,1,4,0.00
2013-10-16,55.9,53.3,52.3,52.5,52.0,50.8,98,95,83,30.08,29.83,2,0,2,0.00
2013-10-17,73.2,54.3,51.9,51.7,51.2,50.4,97,91,45,29.84,29.71,4,1,4,0.00
2013-10-18,68.8,58.8,48.8,54.9,46.7,40.3,97,65,46,29.79,29.55,16,2,16,0.15
2013-10-19,50.2,45.8,43.5,40.7,37.9,36.4,79,74,66,29.88,29.79,8,1,8,0.00
2013-10-20,59.8,50.6,43.1,35.2,33.2,29.8,70,52,33,29.91,29.73,15,1,15,0.00
2013-10-21,57.8,47.5,43.5,45.7,37.4,33.6,73,68,64,29.95,29.91,7,1,7,0.00
2013-10-22,46.5,45.2,44.1,38.4,37.3,36.3,75,74,72,29.68,29.67,3,2,7,0.00
2013-10-23,53.5,44.5,39.2,36.7,33.0,30.9,75,65,43,29.70,29.51,4,1,8,0.00
2013-10-24,52.8,45.1,35.9,35.4,29.6,27.0,84,56,40,29.77,29.53,18,4,18,0.01
2013-10-25,49.9,42.0,36.3,34.0,32.8,30.4,86,72,47,29.91,29.77,6,2,7,0.00
2013-10-26,47.7,45.4,37.5,33.5,29.2,26.7,74,53,44,30.04,29.80,5,2,8,0.00
2013-10-27,57.0,49.0,39.5,37.8,32.5,27.3,84,53,42,29.92,29.74,6,2,16,0.01
2013-10-28,53.5,42.3,33.4,34.1,28.3,22.4,68,58,46,30.26,29.98,5,3,13,0.00
2013-10-29,48.0,39.5,32.9,27.9,23.4,16.9,78,55,29,30.38,30.26,4,1,6,0.00
2013-10-30,48.2,39.8,34.7,33.3,28.6,19.5,80,65,49,30.28,30.11,4,2,7,0.00
2013-10-31,56.9,44.4,35.2,56.6,41.8,31.7,99,91,75,30.15,29.69,7,2,13,0.16
2013-11-1,68.1,60.4,55.7,60.8,55.6,47.5,99,85,67,29.69,29.30,11,5,20,0.09
2013-11-2,65.3,57.0,48.5,46.4,43.3,40.5,90,62,42,29.65,29.51,5,2,9,0.01
2013-11-3,48.5,20.0,38.9,45.8,-35.3,-99.9,91,62,33,30.32,29.64,6,3,13,0.00
2013-11-4,-200.0,0.0,200.0,-99.9,-99.9,-99.9,62,53,30,30.60,30.32,3,1,4,0.00
2013-11-5,38.8,22.6,37.8,32.5,-22.0,-99.9,78,71,61,30.61,30.43,4,2,10,0.00
2013-11-6,56.9,47.1,37.8,43.9,38.1,30.8,83,71,57,30.42,29.95,7,3,10,0.00
2013-11-7,57.6,49.1,36.0,54.4,44.2,26.9,92,83,64,29.72,29.58,16,2,16,0.02
2013-11-8,47.1,38.3,30.9,28.5,24.1,21.1,72,57,39,29.95,29.70,16,3,18,0.01
2013-11-9,37.6,35.8,34.1,30.3,22.6,19.6,78,59,53,30.00,29.95,11,2,11,0.00
2013-11-10,43.1,39.3,34.9,40.1,35.5,27.5,96,86,73,29.96,29.65,5,1,8,0.07
2013-11-11,43.5,37.8,35.6,33.8,29.6,27.3,82,72,59,29.94,29.71,9,4,23,0.00
2013-11-12,41.1,31.9,25.7,32.3,19.5,13.6,74,60,53,30.06,29.76,8,4,14,0.00
2013-11-13,35.5,28.1,19.9,16.6,12.0,8.7,73,51,40,30.17,30.03,7,3,11,0.00
2013-11-14,48.2,39.4,26.1,27.4,24.6,11.5,66,56,39,30.03,29.93,16,2,16,0.00
2013-11-15,52.9,46.3,35.8,23.6,20.0,16.3,60,36,27,30.09,30.00,5,2,13,0.00
2013-11-16,58.6,45.6,39.6,30.5,24.4,18.9,67,44,25,30.25,30.08,4,0,7,0.00
2013-11-18,53.1,33.1,44.2,42.8,-6.4,-99.9,79,45,58,29.52,29.42,3,-320,9,0.03
2013-11-19,44.2,38.6,32.9,32.4,23.5,15.4,67,55,42,29.95,29.52,11,5,22,0.00
2013-11-20,40.1,33.0,28.2,16.2,14.0,10.3,56,46,29,30.55,30.40,8,3,9,0.00
2013-11-21,46.4,36.0,27.0,22.5,12.7,7.9,60,40,22,30.56,30.27,6,2,9,0.00
2013-11-22,39.2,37.2,35.0,36.3,32.8,22.5,96,84,61,30.27,29.72,4,1,7,0.05
2013-11-23,40.8,36.3,27.6,38.3,25.1,14.4,98,67,39,29.79,29.65,10,4,16,0.00
2013-11-24,25.7,20.7,16.2,8.0,2.4,-1.3,57,45,38,30.02,29.68,12,9,24,0.00
2013-11-25,28.4,21.4,14.8,9.3,-0.0,-6.4,54,40,22,30.24,30.03,8,4,15,0.00
2013-11-26,33.7,31.4,27.3,30.5,26.8,24.4,95,83,74,30.24,30.05,4,1,6,0.03
2013-11-27,51.9,12.0,31.8,51.9,-61.4,-99.9,100,26,95,30.05,29.17,17,-730,23,0.40
2013-11-28,31.8,23.9,20.0,15.3,10.7,8.0,61,57,50,30.32,29.89,7,3,9,0.00
2013-11-29,30.1,26.9,16.7,10.6,7.3,4.6,69,44,35,30.48,30.44,7,4,8,0.00
2013-11-30,28.5,26.6,23.6,19.5,18.3,17.1,79,71,62,30.58,30.35,6,3,11,0.00
2013-12-1,34.1,31.7,28.7,33.8,29.5,20.1,99,92,70,30.35,29.97,6,4,9,0.26
2013-12-2,35.5,34.4,32.8,35.2,34.1,32.6,99,99,99,29.97,29.85,7,3,8,0.01
2013-12-3,44.3,37.2,34.4,40.9,31.5,-99.9,99,87,73,29.85,29.78,10,-25,10,0.00
2013-12-4,41.1,35.6,30.1,28.1,26.5,24.2,86,70,58,30.13,29.84,14,2,14,0.00
2013-12-5,42.6,34.8,30.3,42.6,32.1,24.9,100,90,77,30.17,29.83,14,1,14,0.05
2013-12-6,45.2,26.5,33.4,45.2,-11.8,-99.9,100,53,57,30.06,29.78,14,-342,14,0.02
2013-12-7,38.2,31.4,24.1,30.9,22.1,11.5,94,70,49,30.33,29.99,21,3,21,0.10
2013-12-8,29.1,26.4,24.8,14.8,11.9,9.1,64,54,44,30.50,30.44,8,1,8,0.00
2013-12-9,27.9,25.4,22.7,26.1,21.0,11.6,95,84,58,30.44,29.79,10,3,10,0.00
2013-12-10,32.2,27.6,19.4,29.9,24.9,12.8,96,90,75,29.85,29.68,13,1,13,0.00
2013-12-11,29.7,22.3,15.2,18.3,14.0,10.9,89,70,57,30.07,29.85,17,2,17,0.15
2013-12-12,20.8,15.9,10.7,16.2,2.1,-3.6,87,55,37,30.17,29.95,18,3,18,0.01
2013-12-13,24.7,14.1,5.6,13.8,5.1,-6.3,77,67,53,30.32,29.87,15,3,15,0.00
2013-12-14,12.9,8.2,2.4,6.8,-2.5,-8.1,86,62,41,30.56,30.25,13,2,13,0.00
2013-12-15,21.0,15.2,9.7,18.8,12.5,6.4,92,89,86,30.25,29.34,23,5,23,0.00
2013-12-16,26.4,17.7,8.1,19.2,9.3,-1.6,90,71,48,30.12,29.61,7,2,15,0.06
2013-12-17,13.5,8.1,-0.6,8.7,1.2,-6.9,88,74,54,30.22,29.95,8,3,10,0.00
2013-12-18,33.2,22.4,11.4,23.1,16.7,8.3,89,79,62,29.95,29.79,8,4,11,0.01
2013-12-19,36.2,29.6,21.3,23.9,21.4,16.7,84,72,56,30.01,29.85,9,2,9,0.00
2013-12-20,41.6,36.3,31.6,34.0,29.4,24.1,88,76,63,30.04,29.83,10,2,10,0.00
2013-12-21,47.0,39.9,33.2,44.7,37.1,31.9,97,90,73,29.86,29.76,13,1,13,0.07
2013-12-22,40.1,31.1,27.2,39.1,30.4,26.5,98,97,96,30.00,29.79,13,2,13,0.29
2013-12-23,32.8,29.6,27.0,32.3,29.2,26.2,99,98,98,30.04,29.92,9,1,9,23.59
2013-12-24,32.9,27.0,17.2,32.6,23.1,10.1,99,85,74,30.12,29.98,16,1,16,0.00
2013-12-25,21.8,14.1,6.0,11.1,6.4,-2.0,84,71,56,30.48,30.11,18,2,18,0.00
2013-12-26,26.9,20.3,13.3,25.1,16.2,8.1,93,84,67,30.44,30.01,10,1,10,0.00
2013-12-27,32.4,24.4,18.8,24.7,19.1,15.9,89,80,69,30.15,30.07,13,1,13,0.02
2013-12-28,37.8,29.9,22.4,31.0,24.5,17.5,88,80,69,30.11,29.89,15,2,15,0.02
2013-12-29,38.8,34.1,31.8,32.8,30.2,27.3,98,86,74,29.94,29.43,14,1,14,0.39